sensor_id;sensor_type;location;lat;lon;timestamp;pressure;altitude;pressure_sealevel;temperature;humidity
10716;BME280;5409;42.620;23.316;2024-03-02T00:01:39;91746.28;;;5.75;83.73
10716;BME280;5409;42.620;23.316;2024-03-02T00:04:05;91750.41;;;5.65;82.11
10716;BME280;5409;42.620;23.316;2024-03-02T00:06:32;91737.56;;;5.71;83.03
10716;BME280;5409;42.620;23.316;2024-03-02T00:08:58;91745.25;;;5.71;83.49
10716;BME280;5409;42.620;23.316;2024-03-02T00:11:24;91745.25;;;5.55;83.72
10716;BME280;5409;42.620;23.316;2024-03-02T00:13:52;91753.22;;;5.64;83.60
10716;BME280;5409;42.620;23.316;2024-03-02T00:16:18;91741.41;;;5.63;83.71
10716;BME280;5409;42.620;23.316;2024-03-02T00:18:43;91742.94;;;5.64;84.05
10716;BME280;5409;42.620;23.316;2024-03-02T00:21:09;91749.88;;;5.63;83.55
10716;BME280;5409;42.620;23.316;2024-03-02T00:23:35;91748.31;;;5.73;83.86
10716;BME280;5409;42.620;23.316;2024-03-02T00:26:01;91743.19;;;5.73;84.42
10716;BME280;5409;42.620;23.316;2024-03-02T00:28:29;91746.53;;;5.63;83.72
10716;BME280;5409;42.620;23.316;2024-03-02T00:31:03;91757.81;;;5.62;83.75
10716;BME280;5409;42.620;23.316;2024-03-02T00:33:48;91757.31;;;5.60;84.28
10716;BME280;5409;42.620;23.316;2024-03-02T00:36:15;91749.88;;;5.58;84.37
10716;BME280;5409;42.620;23.316;2024-03-02T00:38:46;91748.84;;;5.49;84.89
10716;BME280;5409;42.620;23.316;2024-03-02T00:41:31;91743.19;;;5.37;85.54
10716;BME280;5409;42.620;23.316;2024-03-02T00:44:01;91733.91;;;5.21;85.30
10716;BME280;5409;42.620;23.316;2024-03-02T00:46:29;91746.78;;;5.31;85.79
10716;BME280;5409;42.620;23.316;2024-03-02T00:48:58;91738.03;;;5.22;86.93
10716;BME280;5409;42.620;23.316;2024-03-02T00:51:25;91738.28;;;5.31;86.91
10716;BME280;5409;42.620;23.316;2024-03-02T00:53:52;91738.06;;;5.37;86.86
10716;BME280;5409;42.620;23.316;2024-03-02T00:56:21;91733.41;;;5.34;85.31
10716;BME280;5409;42.620;23.316;2024-03-02T00:58:46;91737.53;;;5.35;85.70
10716;BME280;5409;42.620;23.316;2024-03-02T01:01:12;91720.06;;;5.27;85.58
10716;BME280;5409;42.620;23.316;2024-03-02T01:03:37;91738.03;;;5.32;85.95
10716;BME280;5409;42.620;23.316;2024-03-02T01:06:04;91741.34;;;5.33;86.95
10716;BME280;5409;42.620;23.316;2024-03-02T01:08:29;91743.94;;;5.33;86.32
10716;BME280;5409;42.620;23.316;2024-03-02T01:10:55;91723.88;;;5.09;87.65
10716;BME280;5409;42.620;23.316;2024-03-02T01:13:22;91726.72;;;5.13;88.29
10716;BME280;5409;42.620;23.316;2024-03-02T01:15:48;91728.78;;;5.26;86.60
10716;BME280;5409;42.620;23.316;2024-03-02T01:18:13;91724.69;;;5.30;86.58
10716;BME280;5409;42.620;23.316;2024-03-02T01:20:38;91727.78;;;5.37;86.70
10716;BME280;5409;42.620;23.316;2024-03-02T01:23:04;91725.19;;;5.42;86.72
10716;BME280;5409;42.620;23.316;2024-03-02T01:25:29;91719.03;;;5.43;85.28
10716;BME280;5409;42.620;23.316;2024-03-02T01:27:54;91692.59;;;5.22;84.94
10716;BME280;5409;42.620;23.316;2024-03-02T01:30:20;91726.75;;;5.43;85.62
10716;BME280;5409;42.620;23.316;2024-03-02T01:32:46;91723.94;;;5.50;85.92
10716;BME280;5409;42.620;23.316;2024-03-02T01:35:11;91716.22;;;5.45;85.26
10716;BME280;5409;42.620;23.316;2024-03-02T01:37:36;91718.28;;;5.53;84.80
10716;BME280;5409;42.620;23.316;2024-03-02T01:40:02;91717.50;;;5.52;86.16
10716;BME280;5409;42.620;23.316;2024-03-02T01:42:28;91725.47;;;5.46;85.82
10716;BME280;5409;42.620;23.316;2024-03-02T01:44:53;91726.22;;;5.31;86.90
10716;BME280;5409;42.620;23.316;2024-03-02T01:47:18;91724.16;;;5.33;87.50
10716;BME280;5409;42.620;23.316;2024-03-02T01:49:44;91712.09;;;5.39;86.30
10716;BME280;5409;42.620;23.316;2024-03-02T01:52:09;91706.72;;;5.45;86.01
10716;BME280;5409;42.620;23.316;2024-03-02T01:54:36;91711.88;;;5.50;86.91
10716;BME280;5409;42.620;23.316;2024-03-02T01:57:01;91711.34;;;5.58;85.88
10716;BME280;5409;42.620;23.316;2024-03-02T01:59:27;91712.13;;;5.54;86.22
10716;BME280;5409;42.620;23.316;2024-03-02T02:01:52;91713.41;;;5.46;86.88
10716;BME280;5409;42.620;23.316;2024-03-02T02:04:18;91723.41;;;5.38;86.28
10716;BME280;5409;42.620;23.316;2024-03-02T02:06:46;91722.13;;;5.40;86.60
10716;BME280;5409;42.620;23.316;2024-03-02T02:09:11;91715.69;;;5.58;87.03
10716;BME280;5409;42.620;23.316;2024-03-02T02:11:37;91716.22;;;5.55;86.31
10716;BME280;5409;42.620;23.316;2024-03-02T02:14:02;91704.66;;;5.57;87.33
10716;BME280;5409;42.620;23.316;2024-03-02T02:16:28;91714.16;;;5.62;86.64
10716;BME280;5409;42.620;23.316;2024-03-02T02:18:53;91716.47;;;5.68;87.12
10716;BME280;5409;42.620;23.316;2024-03-02T02:21:22;91707.50;;;5.61;86.77
10716;BME280;5409;42.620;23.316;2024-03-02T02:23:48;91701.59;;;5.55;86.97
10716;BME280;5409;42.620;23.316;2024-03-02T02:26:13;91709.28;;;5.55;87.27
10716;BME280;5409;42.620;23.316;2024-03-02T02:28:39;91714.16;;;5.62;86.86
10716;BME280;5409;42.620;23.316;2024-03-02T02:31:11;91711.88;;;5.60;86.89
10716;BME280;5409;42.620;23.316;2024-03-02T02:33:39;91711.09;;;5.55;86.36
10716;BME280;5409;42.620;23.316;2024-03-02T02:36:05;91711.88;;;5.55;86.56
10716;BME280;5409;42.620;23.316;2024-03-02T02:38:31;91702.88;;;5.53;87.09
10716;BME280;5409;42.620;23.316;2024-03-02T02:40:57;91709.03;;;5.57;86.58
10716;BME280;5409;42.620;23.316;2024-03-02T02:43:23;91709.03;;;5.57;87.41
10716;BME280;5409;42.620;23.316;2024-03-02T02:45:48;91714.94;;;5.52;87.54
10716;BME280;5409;42.620;23.316;2024-03-02T02:48:14;91716.22;;;5.60;87.44
10716;BME280;5409;42.620;23.316;2024-03-02T02:50:39;91705.72;;;5.61;85.82
10716;BME280;5409;42.620;23.316;2024-03-02T02:53:05;91710.06;;;5.61;86.24
10716;BME280;5409;42.620;23.316;2024-03-02T02:55:31;91701.06;;;5.58;86.09
10716;BME280;5409;42.620;23.316;2024-03-02T02:57:56;91714.44;;;5.60;87.31
10716;BME280;5409;42.620;23.316;2024-03-02T03:00:22;91681.03;;;5.45;86.52
10716;BME280;5409;42.620;23.316;2024-03-02T03:02:49;91711.09;;;5.55;86.95
10716;BME280;5409;42.620;23.316;2024-03-02T03:05:15;91719.56;;;5.55;86.27
10716;BME280;5409;42.620;23.316;2024-03-02T03:07:41;91713.13;;;5.53;86.93
10716;BME280;5409;42.620;23.316;2024-03-02T03:10:07;91717.00;;;5.55;87.93
10716;BME280;5409;42.620;23.316;2024-03-02T03:12:33;91697.47;;;5.44;86.63
10716;BME280;5409;42.620;23.316;2024-03-02T03:14:59;91711.34;;;5.48;88.00
10716;BME280;5409;42.620;23.316;2024-03-02T03:17:26;91706.47;;;5.47;87.08
10716;BME280;5409;42.620;23.316;2024-03-02T03:19:52;91708.00;;;5.48;86.85
10716;BME280;5409;42.620;23.316;2024-03-02T03:22:18;91713.13;;;5.53;87.24
10716;BME280;5409;42.620;23.316;2024-03-02T03:24:43;91712.38;;;5.37;87.61
10716;BME280;5409;42.620;23.316;2024-03-02T03:27:10;91709.28;;;5.35;87.18
10716;BME280;5409;42.620;23.316;2024-03-02T03:29:36;91711.84;;;5.25;88.84
10716;BME280;5409;42.620;23.316;2024-03-02T03:32:02;91712.84;;;5.24;89.29
10716;BME280;5409;42.620;23.316;2024-03-02T03:34:27;91711.84;;;5.35;88.45
10716;BME280;5409;42.620;23.316;2024-03-02T03:36:54;91709.53;;;5.34;88.62
10716;BME280;5409;42.620;23.316;2024-03-02T03:39:20;91716.47;;;5.38;87.95
10716;BME280;5409;42.620;23.316;2024-03-02T03:41:45;91701.56;;;5.30;87.41
10716;BME280;5409;42.620;23.316;2024-03-02T03:44:10;91714.44;;;5.45;87.83
10716;BME280;5409;42.620;23.316;2024-03-02T03:46:36;91717.78;;;5.46;88.02
10716;BME280;5409;42.620;23.316;2024-03-02T03:49:01;91715.44;;;5.44;87.22
10716;BME280;5409;42.620;23.316;2024-03-02T03:51:27;91718.53;;;5.41;87.95
10716;BME280;5409;42.620;23.316;2024-03-02T03:53:52;91710.31;;;5.54;88.04
10716;BME280;5409;42.620;23.316;2024-03-02T03:56:17;91715.97;;;5.46;88.66
10716;BME280;5409;42.620;23.316;2024-03-02T03:58:43;91716.22;;;5.60;87.11
10716;BME280;5409;42.620;23.316;2024-03-02T04:01:08;91718.03;;;5.59;87.15
10716;BME280;5409;42.620;23.316;2024-03-02T04:03:34;91718.28;;;5.58;86.27
10716;BME280;5409;42.620;23.316;2024-03-02T04:05:59;91726.75;;;5.63;86.64
10716;BME280;5409;42.620;23.316;2024-03-02T04:08:25;91722.16;;;5.71;86.04
10716;BME280;5409;42.620;23.316;2024-03-02T04:10:50;91719.81;;;5.64;85.78
10716;BME280;5409;42.620;23.316;2024-03-02T04:13:15;91722.91;;;5.56;86.43
10716;BME280;5409;42.620;23.316;2024-03-02T04:15:41;91721.13;;;5.61;87.85
10716;BME280;5409;42.620;23.316;2024-03-02T04:18:06;91713.41;;;5.56;87.74
10716;BME280;5409;42.620;23.316;2024-03-02T04:20:32;91720.59;;;5.59;87.44
10716;BME280;5409;42.620;23.316;2024-03-02T04:22:57;91711.59;;;5.62;86.79
10716;BME280;5409;42.620;23.316;2024-03-02T04:25:22;91716.47;;;5.68;87.83
10716;BME280;5409;42.620;23.316;2024-03-02T04:27:48;91718.81;;;5.60;87.47
10716;BME280;5409;42.620;23.316;2024-03-02T04:30:13;91723.69;;;5.61;87.69
10716;BME280;5409;42.620;23.316;2024-03-02T04:32:38;91722.63;;;5.67;87.23
10716;BME280;5409;42.620;23.316;2024-03-02T04:35:05;91725.97;;;5.68;86.37
10716;BME280;5409;42.620;23.316;2024-03-02T04:37:34;91715.94;;;5.72;86.02
10716;BME280;5409;42.620;23.316;2024-03-02T04:39:59;91722.16;;;5.76;86.89
10716;BME280;5409;42.620;23.316;2024-03-02T04:42:24;91715.97;;;5.61;87.77
10716;BME280;5409;42.620;23.316;2024-03-02T04:44:50;91725.47;;;5.71;86.83
10716;BME280;5409;42.620;23.316;2024-03-02T04:47:15;91724.72;;;5.71;87.04
10716;BME280;5409;42.620;23.316;2024-03-02T04:49:41;91720.84;;;5.78;85.81
10716;BME280;5409;42.620;23.316;2024-03-02T04:52:06;91718.03;;;5.75;86.46
10716;BME280;5409;42.620;23.316;2024-03-02T04:54:31;91728.56;;;5.88;84.88
10716;BME280;5409;42.620;23.316;2024-03-02T04:56:57;91734.47;;;5.84;85.44
10716;BME280;5409;42.620;23.316;2024-03-02T04:59:23;91722.63;;;5.78;85.64
10716;BME280;5409;42.620;23.316;2024-03-02T05:01:48;91726.75;;;5.79;85.85
10716;BME280;5409;42.620;23.316;2024-03-02T05:04:14;91727.00;;;5.77;85.76
10716;BME280;5409;42.620;23.316;2024-03-02T05:06:40;91730.34;;;5.78;87.31
10716;BME280;5409;42.620;23.316;2024-03-02T05:09:07;91735.72;;;5.81;86.22
10716;BME280;5409;42.620;23.316;2024-03-02T05:11:32;91721.09;;;5.66;86.49
10716;BME280;5409;42.620;23.316;2024-03-02T05:14:07;91732.91;;;5.67;87.05
10716;BME280;5409;42.620;23.316;2024-03-02T05:16:33;91737.03;;;5.79;85.68
10716;BME280;5409;42.620;23.316;2024-03-02T05:18:59;91729.31;;;5.84;86.14
10716;BME280;5409;42.620;23.316;2024-03-02T05:21:24;91732.91;;;5.73;86.93
10716;BME280;5409;42.620;23.316;2024-03-02T05:23:50;91740.88;;;5.76;85.73
10716;BME280;5409;42.620;23.316;2024-03-02T05:26:15;91745.75;;;5.67;87.48
10716;BME280;5409;42.620;23.316;2024-03-02T05:28:40;91746.28;;;5.64;87.51
10716;BME280;5409;42.620;23.316;2024-03-02T05:31:06;91744.72;;;5.58;87.11
10716;BME280;5409;42.620;23.316;2024-03-02T05:33:31;91746.50;;;5.38;88.63
10716;BME280;5409;42.620;23.316;2024-03-02T05:35:58;91753.44;;;5.52;88.37
10716;BME280;5409;42.620;23.316;2024-03-02T05:38:24;91764.50;;;5.63;89.05
10716;BME280;5409;42.620;23.316;2024-03-02T05:40:49;91761.19;;;5.73;87.09
10716;BME280;5409;42.620;23.316;2024-03-02T05:43:15;91765.53;;;5.72;87.63
10716;BME280;5409;42.620;23.316;2024-03-02T05:45:40;91765.81;;;5.65;87.70
10716;BME280;5409;42.620;23.316;2024-03-02T05:48:08;91769.41;;;5.59;87.40
10716;BME280;5409;42.620;23.316;2024-03-02T05:50:35;91774.00;;;5.52;89.28
10716;BME280;5409;42.620;23.316;2024-03-02T05:53:00;91769.91;;;5.56;89.59
10716;BME280;5409;42.620;23.316;2024-03-02T05:55:25;91772.97;;;5.48;89.07
10716;BME280;5409;42.620;23.316;2024-03-02T05:57:51;91771.97;;;5.64;88.94
10716;BME280;5409;42.620;23.316;2024-03-02T06:00:31;91764.50;;;5.68;88.33
10716;BME280;5409;42.620;23.316;2024-03-02T06:02:57;91772.50;;;5.61;89.06
10716;BME280;5409;42.620;23.316;2024-03-02T06:05:23;91770.94;;;5.60;88.90
10716;BME280;5409;42.620;23.316;2024-03-02T06:07:48;91774.53;;;5.59;88.20
10716;BME280;5409;42.620;23.316;2024-03-02T06:10:14;91770.94;;;5.50;88.38
10716;BME280;5409;42.620;23.316;2024-03-02T06:12:39;91772.50;;;5.61;88.19
10716;BME280;5409;42.620;23.316;2024-03-02T06:15:05;91769.41;;;5.64;88.55
10716;BME280;5409;42.620;23.316;2024-03-02T06:17:30;91771.19;;;5.64;88.07
10716;BME280;5409;42.620;23.316;2024-03-02T06:19:56;91775.31;;;5.65;87.95
10716;BME280;5409;42.620;23.316;2024-03-02T06:22:21;91775.31;;;5.75;87.74
10716;BME280;5409;42.620;23.316;2024-03-02T06:24:50;91770.97;;;5.76;87.74
10716;BME280;5409;42.620;23.316;2024-03-02T06:27:15;91778.16;;;5.84;87.93
10716;BME280;5409;42.620;23.316;2024-03-02T06:29:40;91780.50;;;5.90;87.11
10716;BME280;5409;42.620;23.316;2024-03-02T06:32:06;91777.13;;;5.80;88.60
10716;BME280;5409;42.620;23.316;2024-03-02T06:34:31;91778.91;;;5.79;87.82
10716;BME280;5409;42.620;23.316;2024-03-02T06:36:56;91781.25;;;5.76;88.06
10716;BME280;5409;42.620;23.316;2024-03-02T06:39:22;91753.97;;;5.49;89.22
10716;BME280;5409;42.620;23.316;2024-03-02T06:41:47;91785.84;;;5.84;87.94
10716;BME280;5409;42.620;23.316;2024-03-02T06:44:13;91788.66;;;5.82;88.74
10716;BME280;5409;42.620;23.316;2024-03-02T06:46:38;91787.13;;;5.81;87.98
10716;BME280;5409;42.620;23.316;2024-03-02T06:49:04;91787.44;;;5.90;87.13
10716;BME280;5409;42.620;23.316;2024-03-02T06:51:29;91784.88;;;6.00;87.27
10716;BME280;5409;42.620;23.316;2024-03-02T06:53:55;91763.00;;;5.87;85.84
10716;BME280;5409;42.620;23.316;2024-03-02T06:56:20;91786.13;;;6.02;85.84
10716;BME280;5409;42.620;23.316;2024-03-02T06:58:46;91792.06;;;5.98;86.96
10716;BME280;5409;42.620;23.316;2024-03-02T07:01:12;91793.59;;;6.09;86.52
10716;BME280;5409;42.620;23.316;2024-03-02T07:03:37;91798.22;;;6.07;85.75
10716;BME280;5409;42.620;23.316;2024-03-02T07:06:04;91793.59;;;6.09;85.86
10716;BME280;5409;42.620;23.316;2024-03-02T07:08:30;91792.03;;;6.13;86.46
10716;BME280;5409;42.620;23.316;2024-03-02T07:10:55;91798.22;;;6.22;86.28
10716;BME280;5409;42.620;23.316;2024-03-02T07:13:22;91798.72;;;6.29;84.86
10716;BME280;5409;42.620;23.316;2024-03-02T07:15:47;91796.16;;;6.24;85.94
10716;BME280;5409;42.620;23.316;2024-03-02T07:18:27;91800.53;;;6.19;86.62
10716;BME280;5409;42.620;23.316;2024-03-02T07:20:53;91799.22;;;6.26;86.39
10716;BME280;5409;42.620;23.316;2024-03-02T07:23:18;91803.88;;;6.29;85.33
10716;BME280;5409;42.620;23.316;2024-03-02T07:25:45;91795.88;;;6.31;84.37
10716;BME280;5409;42.620;23.316;2024-03-02T07:28:11;91804.13;;;6.33;84.50
10716;BME280;5409;42.620;23.316;2024-03-02T07:30:36;91806.94;;;6.36;84.82
10716;BME280;5409;42.620;23.316;2024-03-02T07:33:03;91815.16;;;6.43;84.98
10716;BME280;5409;42.620;23.316;2024-03-02T07:35:29;91809.75;;;6.35;84.89
10716;BME280;5409;42.620;23.316;2024-03-02T07:37:57;91814.13;;;6.39;84.20
10716;BME280;5409;42.620;23.316;2024-03-02T07:40:23;91812.06;;;6.41;85.67
10716;BME280;5409;42.620;23.316;2024-03-02T07:42:48;91810.50;;;6.45;84.67
10716;BME280;5409;42.620;23.316;2024-03-02T07:45:14;91816.97;;;6.48;84.66
10716;BME280;5409;42.620;23.316;2024-03-02T07:47:40;91820.03;;;6.40;83.85
10716;BME280;5409;42.620;23.316;2024-03-02T07:50:06;91816.44;;;6.36;86.06
10716;BME280;5409;42.620;23.316;2024-03-02T07:52:32;91821.03;;;6.49;84.90
10716;BME280;5409;42.620;23.316;2024-03-02T07:54:57;91823.63;;;6.49;85.07
10716;BME280;5409;42.620;23.316;2024-03-02T07:57:22;91823.13;;;6.52;85.02
10716;BME280;5409;42.620;23.316;2024-03-02T07:59:48;91823.13;;;6.52;85.12
10716;BME280;5409;42.620;23.316;2024-03-02T08:02:14;91829.53;;;6.49;84.89
10716;BME280;5409;42.620;23.316;2024-03-02T08:04:40;91821.03;;;6.54;83.99
10716;BME280;5409;42.620;23.316;2024-03-02T08:07:06;91826.19;;;6.54;84.17
10716;BME280;5409;42.620;23.316;2024-03-02T08:09:31;91833.41;;;6.52;85.05
10716;BME280;5409;42.620;23.316;2024-03-02T08:11:56;91832.38;;;6.53;84.71
10716;BME280;5409;42.620;23.316;2024-03-02T08:14:23;91827.50;;;6.46;84.92
10716;BME280;5409;42.620;23.316;2024-03-02T08:16:48;91839.56;;;6.56;84.58
10716;BME280;5409;42.620;23.316;2024-03-02T08:19:14;91841.91;;;6.37;85.67
10716;BME280;5409;42.620;23.316;2024-03-02T08:21:40;91828.53;;;6.40;85.25
10716;BME280;5409;42.620;23.316;2024-03-02T08:24:06;91836.50;;;6.44;86.21
10716;BME280;5409;42.620;23.316;2024-03-02T08:26:32;91838.81;;;6.55;84.80
10716;BME280;5409;42.620;23.316;2024-03-02T08:28:58;91838.81;;;6.55;84.92
10716;BME280;5409;42.620;23.316;2024-03-02T08:31:23;91830.84;;;6.47;85.79
10716;BME280;5409;42.620;23.316;2024-03-02T08:33:49;91834.44;;;6.46;85.76
10716;BME280;5409;42.620;23.316;2024-03-02T08:36:14;91828.53;;;6.40;86.12
10716;BME280;5409;42.620;23.316;2024-03-02T08:38:40;91833.91;;;6.54;86.02
10716;BME280;5409;42.620;23.316;2024-03-02T08:41:06;91831.06;;;6.61;85.51
10716;BME280;5409;42.620;23.316;2024-03-02T08:43:32;91835.19;;;6.62;85.46
10716;BME280;5409;42.620;23.316;2024-03-02T08:45:58;91832.38;;;6.63;85.72
10716;BME280;5409;42.620;23.316;2024-03-02T08:48:23;91828.47;;;6.76;85.85
10716;BME280;5409;42.620;23.316;2024-03-02T08:50:49;91822.28;;;6.82;84.58
10716;BME280;5409;42.620;23.316;2024-03-02T08:53:14;91833.25;;;7.13;84.20
10716;BME280;5409;42.620;23.316;2024-03-02T08:55:46;91828.81;;;7.23;84.54
10716;BME280;5409;42.620;23.316;2024-03-02T08:58:12;91833.75;;;7.15;83.96
10716;BME280;5409;42.620;23.316;2024-03-02T09:00:38;91827.78;;;7.29;84.22
10716;BME280;5409;42.620;23.316;2024-03-02T09:03:03;91832.88;;;7.39;84.11
10716;BME280;5409;42.620;23.316;2024-03-02T09:05:29;91826.41;;;7.42;83.16
10716;BME280;5409;42.620;23.316;2024-03-02T09:07:54;91835.19;;;7.41;83.85
10716;BME280;5409;42.620;23.316;2024-03-02T09:10:20;91835.47;;;7.34;83.59
10716;BME280;5409;42.620;23.316;2024-03-02T09:12:46;91834.47;;;7.35;84.15
10716;BME280;5409;42.620;23.316;2024-03-02T09:15:11;91838.03;;;7.39;82.67
10716;BME280;5409;42.620;23.316;2024-03-02T09:17:37;91840.59;;;7.45;82.51
10716;BME280;5409;42.620;23.316;2024-03-02T09:20:02;91828.81;;;7.28;83.56
10716;BME280;5409;42.620;23.316;2024-03-02T09:22:29;91843.47;;;7.33;83.93
10716;BME280;5409;42.620;23.316;2024-03-02T09:24:55;91850.97;;;7.24;84.41
10716;BME280;5409;42.620;23.316;2024-03-02T09:27:20;91854.31;;;7.30;83.17
10716;BME280;5409;42.620;23.316;2024-03-02T09:29:46;91859.19;;;7.26;83.84
10716;BME280;5409;42.620;23.316;2024-03-02T09:32:14;91856.88;;;7.30;83.57
10716;BME280;5409;42.620;23.316;2024-03-02T09:34:40;91849.38;;;7.33;82.62
10716;BME280;5409;42.620;23.316;2024-03-02T09:37:06;91856.59;;;7.31;82.53
10716;BME280;5409;42.620;23.316;2024-03-02T09:39:31;91859.72;;;7.23;83.95
10716;BME280;5409;42.620;23.316;2024-03-02T09:41:58;91856.91;;;7.20;84.31
10716;BME280;5409;42.620;23.316;2024-03-02T09:44:24;91850.03;;;7.00;84.87
10716;BME280;5409;42.620;23.316;2024-03-02T09:46:51;91846.66;;;7.10;84.68
10716;BME280;5409;42.620;23.316;2024-03-02T09:49:17;91847.38;;;7.25;83.77
10716;BME280;5409;42.620;23.316;2024-03-02T09:51:47;91852.97;;;7.37;83.48
10716;BME280;5409;42.620;23.316;2024-03-02T09:54:13;91851.72;;;7.35;83.17
10716;BME280;5409;42.620;23.316;2024-03-02T09:56:39;91859.19;;;7.26;83.58
10716;BME280;5409;42.620;23.316;2024-03-02T09:59:04;91848.97;;;7.16;83.64
10716;BME280;5409;42.620;23.316;2024-03-02T10:01:30;91864.38;;;7.21;83.55
10716;BME280;5409;42.620;23.316;2024-03-02T10:03:59;91864.13;;;7.18;84.44
10716;BME280;5409;42.620;23.316;2024-03-02T10:06:26;91855.59;;;7.22;85.24
10716;BME280;5409;42.620;23.316;2024-03-02T10:08:53;91850.75;;;7.21;82.45
10716;BME280;5409;42.620;23.316;2024-03-02T10:11:35;91836.38;;;7.05;82.78
10716;BME280;5409;42.620;23.316;2024-03-02T10:14:11;91857.72;;;7.15;82.96
10716;BME280;5409;42.620;23.316;2024-03-02T10:16:42;91847.91;;;7.12;81.95
10716;BME280;5409;42.620;23.316;2024-03-02T10:19:21;91867.47;;;7.23;82.42
10716;BME280;5409;42.620;23.316;2024-03-02T10:21:51;91854.63;;;7.08;82.81
10716;BME280;5409;42.620;23.316;2024-03-02T10:24:17;91862.31;;;7.18;82.91
10716;BME280;5409;42.620;23.316;2024-03-02T10:26:43;91857.19;;;7.13;83.53
10716;BME280;5409;42.620;23.316;2024-03-02T10:29:09;91859.53;;;7.10;83.86
10716;BME280;5409;42.620;23.316;2024-03-02T10:31:37;91842.28;;;7.05;84.64
10716;BME280;5409;42.620;23.316;2024-03-02T10:34:02;91848.47;;;7.04;83.38
10716;BME280;5409;42.620;23.316;2024-03-02T10:36:28;91855.16;;;7.10;84.07
10716;BME280;5409;42.620;23.316;2024-03-02T10:38:56;91855.41;;;7.04;84.40
10716;BME280;5409;42.620;23.316;2024-03-02T10:41:26;91855.97;;;6.95;84.78
10716;BME280;5409;42.620;23.316;2024-03-02T10:43:53;91842.38;;;6.70;85.40
10716;BME280;5409;42.620;23.316;2024-03-02T10:46:27;91855.75;;;6.87;85.27
10716;BME280;5409;42.620;23.316;2024-03-02T10:48:54;91846.19;;;6.87;85.53
10716;BME280;5409;42.620;23.316;2024-03-02T10:51:19;91838.50;;;6.82;86.01
10716;BME280;5409;42.620;23.316;2024-03-02T10:53:45;91846.47;;;6.91;85.74
10716;BME280;5409;42.620;23.316;2024-03-02T10:56:11;91849.28;;;6.89;86.60
10716;BME280;5409;42.620;23.316;2024-03-02T10:58:41;91829.25;;;6.71;87.29
10716;BME280;5409;42.620;23.316;2024-03-02T11:01:07;91842.59;;;6.88;85.63
10716;BME280;5409;42.620;23.316;2024-03-02T11:03:35;91841.84;;;6.78;86.79
10716;BME280;5409;42.620;23.316;2024-03-02T11:06:06;91842.34;;;6.90;84.98
10716;BME280;5409;42.620;23.316;2024-03-02T11:08:33;91840.53;;;6.90;84.30
10716;BME280;5409;42.620;23.316;2024-03-02T11:11:06;91844.66;;;6.86;85.12
10716;BME280;5409;42.620;23.316;2024-03-02T11:13:33;91838.75;;;6.86;85.78
10716;BME280;5409;42.620;23.316;2024-03-02T11:16:04;91834.09;;;6.83;85.92
10716;BME280;5409;42.620;23.316;2024-03-02T11:18:31;91835.63;;;6.94;85.32
10716;BME280;5409;42.620;23.316;2024-03-02T11:20:58;91842.84;;;6.97;84.74
10716;BME280;5409;42.620;23.316;2024-03-02T11:23:33;91835.63;;;6.94;84.77
10716;BME280;5409;42.620;23.316;2024-03-02T11:26:19;91834.63;;;6.85;85.26
10716;BME280;5409;42.620;23.316;2024-03-02T11:28:44;91830.50;;;6.84;85.75
10716;BME280;5409;42.620;23.316;2024-03-02T11:31:11;91835.16;;;6.77;86.39
10716;BME280;5409;42.620;23.316;2024-03-02T11:33:36;91832.59;;;6.77;86.29
10716;BME280;5409;42.620;23.316;2024-03-02T11:36:01;91829.22;;;6.86;86.21
10716;BME280;5409;42.620;23.316;2024-03-02T11:38:28;91830.22;;;6.90;85.36
10716;BME280;5409;42.620;23.316;2024-03-02T11:40:54;91811.25;;;6.66;85.79
10716;BME280;5409;42.620;23.316;2024-03-02T11:43:20;91836.97;;;6.71;86.55
10716;BME280;5409;42.620;23.316;2024-03-02T11:45:46;91833.38;;;6.77;86.62
10716;BME280;5409;42.620;23.316;2024-03-02T11:48:14;91825.38;;;6.69;85.90
10716;BME280;5409;42.620;23.316;2024-03-02T11:50:47;91825.16;;;6.55;87.35
10716;BME280;5409;42.620;23.316;2024-03-02T11:53:14;91830.53;;;6.64;87.48
10716;BME280;5409;42.620;23.316;2024-03-02T11:55:40;91839.56;;;6.71;87.08
10716;BME280;5409;42.620;23.316;2024-03-02T11:58:07;91832.63;;;6.62;87.11
10716;BME280;5409;42.620;23.316;2024-03-02T12:00:32;91825.66;;;6.67;87.24
10716;BME280;5409;42.620;23.316;2024-03-02T12:03:06;91821.03;;;6.64;87.82
10716;BME280;5409;42.620;23.316;2024-03-02T12:05:32;91828.47;;;6.76;87.31
10716;BME280;5409;42.620;23.316;2024-03-02T12:07:59;91831.03;;;6.86;86.70
10716;BME280;5409;42.620;23.316;2024-03-02T12:10:26;91828.41;;;6.96;85.74
10716;BME280;5409;42.620;23.316;2024-03-02T12:12:56;91829.72;;;6.88;85.72
10716;BME280;5409;42.620;23.316;2024-03-02T12:15:40;91841.56;;;6.84;86.16
10716;BME280;5409;42.620;23.316;2024-03-02T12:18:05;91836.88;;;7.07;84.60
10716;BME280;5409;42.620;23.316;2024-03-02T12:20:32;91838.13;;;7.14;84.82
10716;BME280;5409;42.620;23.316;2024-03-02T12:22:59;91834.00;;;7.13;84.90
10716;BME280;5409;42.620;23.316;2024-03-02T12:25:25;91836.13;;;7.01;85.58
10716;BME280;5409;42.620;23.316;2024-03-02T12:27:56;91838.69;;;7.06;85.24
10716;BME280;5409;42.620;23.316;2024-03-02T12:30:22;91832.00;;;7.00;86.08
10716;BME280;5409;42.620;23.316;2024-03-02T12:32:48;91822.00;;;6.88;86.09
10716;BME280;5409;42.620;23.316;2024-03-02T12:35:14;91824.28;;;7.00;86.07
10716;BME280;5409;42.620;23.316;2024-03-02T12:37:51;91832.50;;;7.02;85.79
10716;BME280;5409;42.620;23.316;2024-03-02T12:40:18;91840.72;;;7.09;85.94
10716;BME280;5409;42.620;23.316;2024-03-02T12:42:48;91836.38;;;6.99;86.84
10716;BME280;5409;42.620;23.316;2024-03-02T12:45:15;91833.84;;;6.89;86.87
10716;BME280;5409;42.620;23.316;2024-03-02T12:47:41;91833.06;;;6.89;87.48
10716;BME280;5409;42.620;23.316;2024-03-02T12:50:08;91835.66;;;6.84;86.57
10716;BME280;5409;42.620;23.316;2024-03-02T12:52:34;91836.19;;;6.81;86.21
10716;BME280;5409;42.620;23.316;2024-03-02T12:55:04;91830.50;;;6.79;86.85
10716;BME280;5409;42.620;23.316;2024-03-02T12:57:31;91829.47;;;6.90;86.94
10716;BME280;5409;42.620;23.316;2024-03-02T13:00:04;91840.75;;;7.04;85.89
10716;BME280;5409;42.620;23.316;2024-03-02T13:02:36;91842.75;;;7.12;85.84
10716;BME280;5409;42.620;23.316;2024-03-02T13:05:02;91830.19;;;7.11;85.99
10716;BME280;5409;42.620;23.316;2024-03-02T13:07:27;91846.88;;;7.18;84.67